sensor_id;sensor_type;location;lat;lon;timestamp;P1;durP1;ratioP1;P2;durP2;ratioP2
13374;SDS011;6756;51.354;15.754;2024-03-23T00:55:48;18.23;;;12.37;;
13374;SDS011;6756;51.354;15.754;2024-03-23T00:59:49;17.10;;;11.57;;
13374;SDS011;6756;51.354;15.754;2024-03-23T01:03:50;16.60;;;11.97;;
13374;SDS011;6756;51.354;15.754;2024-03-23T01:07:50;14.97;;;10.97;;
13374;SDS011;6756;51.354;15.754;2024-03-23T01:11:51;15.97;;;11.70;;
13374;SDS011;6756;51.354;15.754;2024-03-23T01:15:52;21.30;;;14.60;;
13374;SDS011;6756;51.354;15.754;2024-03-23T01:19:54;46.13;;;16.30;;
13374;SDS011;6756;51.354;15.754;2024-03-23T01:23:55;23.63;;;14.57;;
13374;SDS011;6756;51.354;15.754;2024-03-23T01:27:56;15.30;;;10.67;;
13374;SDS011;6756;51.354;15.754;2024-03-23T01:31:57;13.47;;;10.30;;
13374;SDS011;6756;51.354;15.754;2024-03-23T01:35:57;14.73;;;10.73;;
13374;SDS011;6756;51.354;15.754;2024-03-23T01:39:59;18.00;;;12.70;;
13374;SDS011;6756;51.354;15.754;2024-03-23T01:43:59;19.43;;;13.17;;
13374;SDS011;6756;51.354;15.754;2024-03-23T01:48:06;22.13;;;14.20;;
13374;SDS011;6756;51.354;15.754;2024-03-23T01:52:07;26.03;;;15.40;;
13374;SDS011;6756;51.354;15.754;2024-03-23T01:56:08;23.73;;;15.50;;
13374;SDS011;6756;51.354;15.754;2024-03-23T02:00:09;25.03;;;16.40;;
13374;SDS011;6756;51.354;15.754;2024-03-23T02:04:12;27.27;;;17.93;;
13374;SDS011;6756;51.354;15.754;2024-03-23T02:08:13;29.43;;;18.23;;
13374;SDS011;6756;51.354;15.754;2024-03-23T02:12:14;28.67;;;18.10;;
13374;SDS011;6756;51.354;15.754;2024-03-23T02:16:15;24.90;;;16.57;;
13374;SDS011;6756;51.354;15.754;2024-03-23T02:20:16;24.77;;;15.53;;
13374;SDS011;6756;51.354;15.754;2024-03-23T02:24:17;21.60;;;14.50;;
13374;SDS011;6756;51.354;15.754;2024-03-23T02:28:17;25.30;;;16.77;;
13374;SDS011;6756;51.354;15.754;2024-03-23T02:32:18;21.47;;;15.43;;
13374;SDS011;6756;51.354;15.754;2024-03-23T02:36:19;22.20;;;15.13;;
13374;SDS011;6756;51.354;15.754;2024-03-23T02:40:21;23.53;;;16.27;;
13374;SDS011;6756;51.354;15.754;2024-03-23T02:44:23;24.63;;;16.73;;
13374;SDS011;6756;51.354;15.754;2024-03-23T02:48:23;32.07;;;19.90;;
13374;SDS011;6756;51.354;15.754;2024-03-23T02:52:24;115.27;;;49.97;;
13374;SDS011;6756;51.354;15.754;2024-03-23T02:56:25;97.17;;;41.57;;
13374;SDS011;6756;51.354;15.754;2024-03-23T03:00:25;49.47;;;24.77;;
13374;SDS011;6756;51.354;15.754;2024-03-23T03:04:26;30.70;;;18.80;;
13374;SDS011;6756;51.354;15.754;2024-03-23T03:08:27;28.30;;;15.23;;
13374;SDS011;6756;51.354;15.754;2024-03-23T03:12:28;25.53;;;16.53;;
13374;SDS011;6756;51.354;15.754;2024-03-23T03:16:29;28.67;;;18.27;;
13374;SDS011;6756;51.354;15.754;2024-03-23T03:20:29;28.80;;;18.73;;
13374;SDS011;6756;51.354;15.754;2024-03-23T03:24:31;25.17;;;14.67;;
13374;SDS011;6756;51.354;15.754;2024-03-23T03:28:33;24.07;;;15.63;;
13374;SDS011;6756;51.354;15.754;2024-03-23T03:32:34;19.00;;;12.77;;
13374;SDS011;6756;51.354;15.754;2024-03-23T03:36:38;28.90;;;16.93;;
13374;SDS011;6756;51.354;15.754;2024-03-23T03:40:39;26.63;;;16.33;;
13374;SDS011;6756;51.354;15.754;2024-03-23T03:44:39;25.20;;;15.30;;
13374;SDS011;6756;51.354;15.754;2024-03-23T03:48:40;24.87;;;15.37;;
13374;SDS011;6756;51.354;15.754;2024-03-23T03:52:41;45.60;;;21.77;;
13374;SDS011;6756;51.354;15.754;2024-03-23T03:56:42;22.47;;;14.90;;
13374;SDS011;6756;51.354;15.754;2024-03-23T04:00:42;35.90;;;20.73;;
13374;SDS011;6756;51.354;15.754;2024-03-23T04:04:43;41.53;;;22.97;;
13374;SDS011;6756;51.354;15.754;2024-03-23T04:08:44;35.10;;;18.90;;
13374;SDS011;6756;51.354;15.754;2024-03-23T04:12:45;27.10;;;18.33;;
13374;SDS011;6756;51.354;15.754;2024-03-23T04:16:47;30.03;;;18.77;;
13374;SDS011;6756;51.354;15.754;2024-03-23T04:20:51;32.93;;;19.33;;
13374;SDS011;6756;51.354;15.754;2024-03-23T04:24:55;27.43;;;17.83;;
13374;SDS011;6756;51.354;15.754;2024-03-23T04:28:57;27.03;;;18.43;;
13374;SDS011;6756;51.354;15.754;2024-03-23T04:32:57;31.10;;;18.70;;
13374;SDS011;6756;51.354;15.754;2024-03-23T04:37:01;27.57;;;17.53;;
13374;SDS011;6756;51.354;15.754;2024-03-23T04:41:02;32.53;;;21.03;;
13374;SDS011;6756;51.354;15.754;2024-03-23T04:45:04;39.87;;;22.37;;
13374;SDS011;6756;51.354;15.754;2024-03-23T04:49:06;40.33;;;22.27;;
13374;SDS011;6756;51.354;15.754;2024-03-23T04:53:07;38.50;;;22.53;;
13374;SDS011;6756;51.354;15.754;2024-03-23T04:57:08;33.47;;;20.70;;
13374;SDS011;6756;51.354;15.754;2024-03-23T05:01:09;28.67;;;17.27;;
13374;SDS011;6756;51.354;15.754;2024-03-23T05:05:11;21.47;;;14.93;;
13374;SDS011;6756;51.354;15.754;2024-03-23T05:09:12;19.67;;;13.67;;
13374;SDS011;6756;51.354;15.754;2024-03-23T05:13:15;19.13;;;13.30;;
13374;SDS011;6756;51.354;15.754;2024-03-23T05:17:16;20.87;;;13.60;;
13374;SDS011;6756;51.354;15.754;2024-03-23T05:21:17;20.67;;;13.47;;
13374;SDS011;6756;51.354;15.754;2024-03-23T05:25:18;23.10;;;14.77;;
13374;SDS011;6756;51.354;15.754;2024-03-23T05:29:18;21.87;;;14.00;;
13374;SDS011;6756;51.354;15.754;2024-03-23T05:33:19;20.13;;;13.50;;
13374;SDS011;6756;51.354;15.754;2024-03-23T05:37:21;45.90;;;22.57;;
13374;SDS011;6756;51.354;15.754;2024-03-23T05:41:23;70.73;;;29.27;;
13374;SDS011;6756;51.354;15.754;2024-03-23T05:45:24;99.40;;;39.13;;
13374;SDS011;6756;51.354;15.754;2024-03-23T05:49:25;82.67;;;34.00;;
13374;SDS011;6756;51.354;15.754;2024-03-23T05:53:26;31.63;;;19.97;;
13374;SDS011;6756;51.354;15.754;2024-03-23T05:57:28;43.17;;;23.23;;
13374;SDS011;6756;51.354;15.754;2024-03-23T06:01:29;34.33;;;21.57;;
13374;SDS011;6756;51.354;15.754;2024-03-23T06:05:32;32.77;;;19.83;;
13374;SDS011;6756;51.354;15.754;2024-03-23T06:09:33;29.87;;;18.67;;
13374;SDS011;6756;51.354;15.754;2024-03-23T06:13:34;28.17;;;18.27;;
13374;SDS011;6756;51.354;15.754;2024-03-23T06:17:35;30.20;;;18.37;;
13374;SDS011;6756;51.354;15.754;2024-03-23T06:21:36;36.33;;;21.47;;
13374;SDS011;6756;51.354;15.754;2024-03-23T06:25:37;33.07;;;20.83;;
13374;SDS011;6756;51.354;15.754;2024-03-23T06:29:37;36.47;;;22.60;;
13374;SDS011;6756;51.354;15.754;2024-03-23T06:33:38;44.90;;;25.73;;
13374;SDS011;6756;51.354;15.754;2024-03-23T06:37:40;37.60;;;23.60;;
13374;SDS011;6756;51.354;15.754;2024-03-23T06:41:42;40.70;;;24.90;;
13374;SDS011;6756;51.354;15.754;2024-03-23T06:45:43;40.07;;;23.87;;
13374;SDS011;6756;51.354;15.754;2024-03-23T06:49:44;38.63;;;22.77;;
13374;SDS011;6756;51.354;15.754;2024-03-23T06:53:44;47.20;;;27.57;;
13374;SDS011;6756;51.354;15.754;2024-03-23T06:57:45;40.07;;;24.97;;
13374;SDS011;6756;51.354;15.754;2024-03-23T07:01:49;41.00;;;24.03;;
13374;SDS011;6756;51.354;15.754;2024-03-23T07:05:50;38.87;;;24.20;;
13374;SDS011;6756;51.354;15.754;2024-03-23T07:09:51;35.30;;;21.40;;
13374;SDS011;6756;51.354;15.754;2024-03-23T07:13:52;31.83;;;20.73;;
13374;SDS011;6756;51.354;15.754;2024-03-23T07:17:56;40.50;;;24.53;;
13374;SDS011;6756;51.354;15.754;2024-03-23T07:21:57;42.17;;;26.53;;
13374;SDS011;6756;51.354;15.754;2024-03-23T07:26:04;38.47;;;24.10;;
13374;SDS011;6756;51.354;15.754;2024-03-23T07:30:06;33.93;;;22.13;;
13374;SDS011;6756;51.354;15.754;2024-03-23T07:34:07;34.87;;;24.40;;
13374;SDS011;6756;51.354;15.754;2024-03-23T07:38:08;35.87;;;24.17;;
13374;SDS011;6756;51.354;15.754;2024-03-23T07:42:09;30.90;;;22.50;;
13374;SDS011;6756;51.354;15.754;2024-03-23T07:46:10;29.83;;;22.93;;
13374;SDS011;6756;51.354;15.754;2024-03-23T07:50:12;30.63;;;23.30;;
13374;SDS011;6756;51.354;15.754;2024-03-23T07:54:13;27.40;;;21.13;;
13374;SDS011;6756;51.354;15.754;2024-03-23T07:58:14;29.30;;;23.00;;
13374;SDS011;6756;51.354;15.754;2024-03-23T08:02:14;45.97;;;33.90;;
13374;SDS011;6756;51.354;15.754;2024-03-23T08:06:19;46.40;;;29.80;;
13374;SDS011;6756;51.354;15.754;2024-03-23T08:10:20;46.77;;;28.27;;
13374;SDS011;6756;51.354;15.754;2024-03-23T08:14:21;37.50;;;22.23;;
13374;SDS011;6756;51.354;15.754;2024-03-23T08:18:21;24.77;;;19.97;;
13374;SDS011;6756;51.354;15.754;2024-03-23T08:22:22;25.87;;;19.80;;
13374;SDS011;6756;51.354;15.754;2024-03-23T08:26:23;23.07;;;18.40;;
13374;SDS011;6756;51.354;15.754;2024-03-23T08:30:24;21.43;;;17.33;;
13374;SDS011;6756;51.354;15.754;2024-03-23T08:34:25;29.47;;;22.33;;
13374;SDS011;6756;51.354;15.754;2024-03-23T08:38:26;33.00;;;20.40;;
13374;SDS011;6756;51.354;15.754;2024-03-23T08:42:27;31.67;;;21.50;;
13374;SDS011;6756;51.354;15.754;2024-03-23T08:46:28;26.40;;;19.27;;
13374;SDS011;6756;51.354;15.754;2024-03-23T08:50:28;25.83;;;18.20;;
13374;SDS011;6756;51.354;15.754;2024-03-23T08:54:29;22.57;;;17.40;;
13374;SDS011;6756;51.354;15.754;2024-03-23T08:58:31;24.73;;;18.73;;
13374;SDS011;6756;51.354;15.754;2024-03-23T09:02:33;49.47;;;31.70;;
13374;SDS011;6756;51.354;15.754;2024-03-23T09:06:34;38.70;;;27.73;;
13374;SDS011;6756;51.354;15.754;2024-03-23T09:10:41;45.90;;;31.63;;
13374;SDS011;6756;51.354;15.754;2024-03-23T09:14:42;42.47;;;28.70;;
13374;SDS011;6756;51.354;15.754;2024-03-23T09:18:43;57.00;;;37.33;;
13374;SDS011;6756;51.354;15.754;2024-03-23T09:22:45;42.33;;;28.90;;
13374;SDS011;6756;51.354;15.754;2024-03-23T09:26:48;38.50;;;27.77;;
13374;SDS011;6756;51.354;15.754;2024-03-23T09:30:48;40.37;;;29.50;;
13374;SDS011;6756;51.354;15.754;2024-03-23T09:34:49;34.93;;;26.33;;
13374;SDS011;6756;51.354;15.754;2024-03-23T09:38:50;40.90;;;28.40;;
13374;SDS011;6756;51.354;15.754;2024-03-23T09:42:50;41.70;;;28.67;;
13374;SDS011;6756;51.354;15.754;2024-03-23T09:46:51;38.87;;;27.13;;
13374;SDS011;6756;51.354;15.754;2024-03-23T09:50:52;38.03;;;26.17;;
13374;SDS011;6756;51.354;15.754;2024-03-23T09:54:53;37.87;;;27.47;;
13374;SDS011;6756;51.354;15.754;2024-03-23T09:59:01;31.70;;;24.03;;
13374;SDS011;6756;51.354;15.754;2024-03-23T10:03:02;31.10;;;23.53;;
13374;SDS011;6756;51.354;15.754;2024-03-23T10:07:11;29.47;;;21.50;;
13374;SDS011;6756;51.354;15.754;2024-03-23T10:11:14;36.17;;;25.17;;
13374;SDS011;6756;51.354;15.754;2024-03-23T10:15:22;36.43;;;27.63;;
13374;SDS011;6756;51.354;15.754;2024-03-23T10:19:31;28.83;;;22.10;;
13374;SDS011;6756;51.354;15.754;2024-03-23T10:23:32;26.87;;;20.33;;
13374;SDS011;6756;51.354;15.754;2024-03-23T10:27:33;29.13;;;23.27;;
13374;SDS011;6756;51.354;15.754;2024-03-23T10:31:34;27.23;;;21.63;;
13374;SDS011;6756;51.354;15.754;2024-03-23T10:35:41;21.17;;;17.73;;
13374;SDS011;6756;51.354;15.754;2024-03-23T10:39:43;27.43;;;19.63;;
13374;SDS011;6756;51.354;15.754;2024-03-23T10:43:47;22.00;;;18.03;;
13374;SDS011;6756;51.354;15.754;2024-03-23T10:47:48;19.33;;;15.47;;
13374;SDS011;6756;51.354;15.754;2024-03-23T10:51:49;16.93;;;12.33;;
13374;SDS011;6756;51.354;15.754;2024-03-23T10:55:50;16.20;;;11.57;;
13374;SDS011;6756;51.354;15.754;2024-03-23T10:59:52;11.57;;;10.37;;
13374;SDS011;6756;51.354;15.754;2024-03-23T11:03:53;12.63;;;10.70;;
13374;SDS011;6756;51.354;15.754;2024-03-23T11:07:54;14.60;;;12.30;;
13374;SDS011;6756;51.354;15.754;2024-03-23T11:11:55;13.33;;;11.33;;
13374;SDS011;6756;51.354;15.754;2024-03-23T11:15:56;13.07;;;11.60;;
13374;SDS011;6756;51.354;15.754;2024-03-23T11:20:24;15.67;;;12.57;;
13374;SDS011;6756;51.354;15.754;2024-03-23T11:24:32;17.03;;;12.70;;
13374;SDS011;6756;51.354;15.754;2024-03-23T11:28:33;14.13;;;11.20;;
13374;SDS011;6756;51.354;15.754;2024-03-23T11:32:34;9.33;;;7.67;;
13374;SDS011;6756;51.354;15.754;2024-03-23T11:36:36;7.73;;;6.97;;
13374;SDS011;6756;51.354;15.754;2024-03-23T11:40:41;7.67;;;6.03;;
13374;SDS011;6756;51.354;15.754;2024-03-23T11:44:43;10.90;;;6.87;;
13374;SDS011;6756;51.354;15.754;2024-03-23T11:48:49;7.53;;;6.73;;
13374;SDS011;6756;51.354;15.754;2024-03-23T11:53:05;9.27;;;7.13;;
13374;SDS011;6756;51.354;15.754;2024-03-23T11:57:16;7.87;;;7.07;;
13374;SDS011;6756;51.354;15.754;2024-03-23T12:01:17;9.10;;;6.70;;
13374;SDS011;6756;51.354;15.754;2024-03-23T12:05:19;9.63;;;6.27;;
13374;SDS011;6756;51.354;15.754;2024-03-23T12:09:22;7.40;;;5.80;;
13374;SDS011;6756;51.354;15.754;2024-03-23T12:13:23;8.33;;;6.03;;
13374;SDS011;6756;51.354;15.754;2024-03-23T12:17:24;6.50;;;5.57;;
13374;SDS011;6756;51.354;15.754;2024-03-23T12:21:25;6.77;;;4.40;;
13374;SDS011;6756;51.354;15.754;2024-03-23T12:25:26;5.10;;;3.63;;
13374;SDS011;6756;51.354;15.754;2024-03-23T12:29:30;5.50;;;3.10;;
13374;SDS011;6756;51.354;15.754;2024-03-23T12:33:32;3.23;;;2.37;;
13374;SDS011;6756;51.354;15.754;2024-03-23T12:37:32;1.90;;;1.70;;
13374;SDS011;6756;51.354;15.754;2024-03-23T12:41:33;2.10;;;1.90;;
13374;SDS011;6756;51.354;15.754;2024-03-23T12:45:34;3.00;;;1.93;;
13374;SDS011;6756;51.354;15.754;2024-03-23T12:49:35;2.10;;;1.30;;
13374;SDS011;6756;51.354;15.754;2024-03-23T12:53:36;1.57;;;1.23;;
13374;SDS011;6756;51.354;15.754;2024-03-23T12:57:36;1.00;;;0.87;;
13374;SDS011;6756;51.354;15.754;2024-03-23T13:01:37;1.63;;;1.00;;
13374;SDS011;6756;51.354;15.754;2024-03-23T13:05:38;0.93;;;0.90;;
13374;SDS011;6756;51.354;15.754;2024-03-23T13:09:40;0.97;;;0.70;;
13374;SDS011;6756;51.354;15.754;2024-03-23T13:13:41;0.70;;;0.70;;
13374;SDS011;6756;51.354;15.754;2024-03-23T13:17:42;1.30;;;0.90;;
13374;SDS011;6756;51.354;15.754;2024-03-23T13:21:43;1.20;;;0.90;;
13374;SDS011;6756;51.354;15.754;2024-03-23T13:25:56;1.60;;;0.80;;
13374;SDS011;6756;51.354;15.754;2024-03-23T13:29:57;1.40;;;0.70;;
13374;SDS011;6756;51.354;15.754;2024-03-23T13:33:58;1.30;;;0.90;;
13374;SDS011;6756;51.354;15.754;2024-03-23T13:37:58;1.20;;;1.07;;
13374;SDS011;6756;51.354;15.754;2024-03-23T13:41:59;1.80;;;1.40;;
13374;SDS011;6756;51.354;15.754;2024-03-23T13:46:00;1.60;;;1.50;;
13374;SDS011;6756;51.354;15.754;2024-03-23T13:50:01;1.87;;;1.70;;
13374;SDS011;6756;51.354;15.754;2024-03-23T13:54:02;1.60;;;1.50;;
13374;SDS011;6756;51.354;15.754;2024-03-23T13:58:03;1.57;;;1.37;;
13374;SDS011;6756;51.354;15.754;2024-03-23T14:02:04;1.37;;;0.90;;
13374;SDS011;6756;51.354;15.754;2024-03-23T14:06:05;1.00;;;0.87;;
13374;SDS011;6756;51.354;15.754;2024-03-23T14:10:07;0.40;;;0.40;;
13374;SDS011;6756;51.354;15.754;2024-03-23T14:14:10;0.50;;;0.40;;
13374;SDS011;6756;51.354;15.754;2024-03-23T14:18:11;0.53;;;0.50;;
13374;SDS011;6756;51.354;15.754;2024-03-23T14:22:13;0.53;;;0.40;;
13374;SDS011;6756;51.354;15.754;2024-03-23T14:26:14;1.03;;;0.40;;
13374;SDS011;6756;51.354;15.754;2024-03-23T14:30:15;0.20;;;0.20;;
13374;SDS011;6756;51.354;15.754;2024-03-23T14:34:16;0.40;;;0.30;;
13374;SDS011;6756;51.354;15.754;2024-03-23T14:38:17;1.13;;;0.40;;
13374;SDS011;6756;51.354;15.754;2024-03-23T14:42:18;0.30;;;0.27;;
13374;SDS011;6756;51.354;15.754;2024-03-23T14:46:20;0.33;;;0.33;;
13374;SDS011;6756;51.354;15.754;2024-03-23T14:50:20;1.43;;;0.30;;
13374;SDS011;6756;51.354;15.754;2024-03-23T14:54:21;0.40;;;0.30;;
13374;SDS011;6756;51.354;15.754;2024-03-23T14:58:22;0.70;;;0.50;;
13374;SDS011;6756;51.354;15.754;2024-03-23T15:02:24;0.93;;;0.53;;
13374;SDS011;6756;51.354;15.754;2024-03-23T15:06:27;1.13;;;0.50;;
13374;SDS011;6756;51.354;15.754;2024-03-23T15:10:28;0.50;;;0.37;;
13374;SDS011;6756;51.354;15.754;2024-03-23T15:14:28;0.33;;;0.23;;
13374;SDS011;6756;51.354;15.754;2024-03-23T15:18:30;0.50;;;0.40;;
13374;SDS011;6756;51.354;15.754;2024-03-23T15:22:31;0.70;;;0.50;;
13374;SDS011;6756;51.354;15.754;2024-03-23T15:26:31;0.97;;;0.40;;
13374;SDS011;6756;51.354;15.754;2024-03-23T15:30:32;0.80;;;0.70;;
13374;SDS011;6756;51.354;15.754;2024-03-23T15:34:33;1.70;;;0.80;;
13374;SDS011;6756;51.354;15.754;2024-03-23T15:38:34;1.87;;;0.77;;
13374;SDS011;6756;51.354;15.754;2024-03-23T15:42:35;2.63;;;1.17;;
13374;SDS011;6756;51.354;15.754;2024-03-23T15:46:36;1.67;;;1.30;;
13374;SDS011;6756;51.354;15.754;2024-03-23T15:50:37;1.97;;;1.13;;
13374;SDS011;6756;51.354;15.754;2024-03-23T15:54:38;2.03;;;0.83;;
13374;SDS011;6756;51.354;15.754;2024-03-23T15:58:39;1.83;;;0.80;;
13374;SDS011;6756;51.354;15.754;2024-03-23T16:02:40;1.97;;;0.87;;
13374;SDS011;6756;51.354;15.754;2024-03-23T16:06:41;0.90;;;0.60;;
13374;SDS011;6756;51.354;15.754;2024-03-23T16:10:44;2.63;;;0.87;;
13374;SDS011;6756;51.354;15.754;2024-03-23T16:14:48;1.07;;;0.40;;
13374;SDS011;6756;51.354;15.754;2024-03-23T16:18:48;3.67;;;0.70;;
13374;SDS011;6756;51.354;15.754;2024-03-23T16:22:49;1.53;;;0.80;;
13374;SDS011;6756;51.354;15.754;2024-03-23T16:26:50;2.23;;;0.77;;
13374;SDS011;6756;51.354;15.754;2024-03-23T16:30:57;2.00;;;0.60;;
13374;SDS011;6756;51.354;15.754;2024-03-23T16:35:11;1.60;;;0.70;;
13374;SDS011;6756;51.354;15.754;2024-03-23T16:39:13;2.90;;;0.90;;
13374;SDS011;6756;51.354;15.754;2024-03-23T16:43:15;3.07;;;0.90;;
13374;SDS011;6756;51.354;15.754;2024-03-23T16:47:16;1.47;;;0.70;;
13374;SDS011;6756;51.354;15.754;2024-03-23T16:51:17;1.53;;;0.93;;
13374;SDS011;6756;51.354;15.754;2024-03-23T16:55:18;3.00;;;0.93;;
13374;SDS011;6756;51.354;15.754;2024-03-23T16:59:18;1.67;;;0.80;;
13374;SDS011;6756;51.354;15.754;2024-03-23T17:03:19;2.70;;;0.90;;
13374;SDS011;6756;51.354;15.754;2024-03-23T17:07:20;1.00;;;0.80;;
13374;SDS011;6756;51.354;15.754;2024-03-23T17:11:21;3.40;;;0.83;;
13374;SDS011;6756;51.354;15.754;2024-03-23T17:15:22;3.80;;;1.00;;
13374;SDS011;6756;51.354;15.754;2024-03-23T17:19:22;2.90;;;1.20;;
13374;SDS011;6756;51.354;15.754;2024-03-23T17:23:27;3.03;;;1.40;;
13374;SDS011;6756;51.354;15.754;2024-03-23T17:27:29;1.90;;;1.30;;
13374;SDS011;6756;51.354;15.754;2024-03-23T17:31:29;3.00;;;1.70;;
13374;SDS011;6756;51.354;15.754;2024-03-23T17:35:30;2.57;;;1.27;;
13374;SDS011;6756;51.354;15.754;2024-03-23T17:39:31;3.73;;;1.50;;
13374;SDS011;6756;51.354;15.754;2024-03-23T17:43:32;4.30;;;1.63;;
13374;SDS011;6756;51.354;15.754;2024-03-23T17:47:34;2.43;;;1.30;;
13374;SDS011;6756;51.354;15.754;2024-03-23T17:51:36;1.93;;;1.23;;
13374;SDS011;6756;51.354;15.754;2024-03-23T17:55:37;2.43;;;1.30;;
13374;SDS011;6756;51.354;15.754;2024-03-23T17:59:38;3.03;;;1.00;;
13374;SDS011;6756;51.354;15.754;2024-03-23T18:03:38;2.90;;;1.20;;
13374;SDS011;6756;51.354;15.754;2024-03-23T18:07:39;2.20;;;1.20;;
13374;SDS011;6756;51.354;15.754;2024-03-23T18:11:40;4.27;;;2.17;;
13374;SDS011;6756;51.354;15.754;2024-03-23T18:15:41;4.50;;;2.00;;
13374;SDS011;6756;51.354;15.754;2024-03-23T18:19:42;4.67;;;2.23;;
13374;SDS011;6756;51.354;15.754;2024-03-23T18:23:45;6.13;;;2.73;;
13374;SDS011;6756;51.354;15.754;2024-03-23T18:27:49;9.50;;;3.97;;
13374;SDS011;6756;51.354;15.754;2024-03-23T18:31:49;11.77;;;4.93;;
13374;SDS011;6756;51.354;15.754;2024-03-23T18:35:53;8.33;;;4.40;;
13374;SDS011;6756;51.354;15.754;2024-03-23T18:39:54;7.77;;;4.50;;
13374;SDS011;6756;51.354;15.754;2024-03-23T18:43:54;6.43;;;4.10;;
13374;SDS011;6756;51.354;15.754;2024-03-23T18:47:55;6.73;;;3.47;;
13374;SDS011;6756;51.354;15.754;2024-03-23T18:51:57;7.37;;;3.80;;
13374;SDS011;6756;51.354;15.754;2024-03-23T18:55:58;6.87;;;4.30;;
13374;SDS011;6756;51.354;15.754;2024-03-23T19:00:05;9.23;;;5.37;;
13374;SDS011;6756;51.354;15.754;2024-03-23T19:04:08;9.33;;;6.07;;
13374;SDS011;6756;51.354;15.754;2024-03-23T19:08:09;7.97;;;5.93;;
13374;SDS011;6756;51.354;15.754;2024-03-23T19:12:10;10.80;;;6.77;;
13374;SDS011;6756;51.354;15.754;2024-03-23T19:16:11;13.03;;;7.00;;
13374;SDS011;6756;51.354;15.754;2024-03-23T19:20:12;10.73;;;6.03;;
13374;SDS011;6756;51.354;15.754;2024-03-23T19:24:14;9.67;;;6.20;;
13374;SDS011;6756;51.354;15.754;2024-03-23T19:28:14;8.90;;;5.13;;
13374;SDS011;6756;51.354;15.754;2024-03-23T19:32:15;9.20;;;4.93;;
13374;SDS011;6756;51.354;15.754;2024-03-23T19:36:16;12.90;;;4.97;;
13374;SDS011;6756;51.354;15.754;2024-03-23T19:40:17;9.30;;;5.37;;
13374;SDS011;6756;51.354;15.754;2024-03-23T19:44:18;7.90;;;4.47;;
13374;SDS011;6756;51.354;15.754;2024-03-23T19:48:19;4.93;;;3.63;;
13374;SDS011;6756;51.354;15.754;2024-03-23T19:52:20;6.37;;;3.30;;
13374;SDS011;6756;51.354;15.754;2024-03-23T19:56:21;4.70;;;2.87;;
13374;SDS011;6756;51.354;15.754;2024-03-23T20:00:21;7.47;;;4.30;;
13374;SDS011;6756;51.354;15.754;2024-03-23T20:04:22;7.10;;;4.10;;
13374;SDS011;6756;51.354;15.754;2024-03-23T20:08:23;9.90;;;4.70;;
13374;SDS011;6756;51.354;15.754;2024-03-23T20:12:24;8.50;;;5.30;;
13374;SDS011;6756;51.354;15.754;2024-03-23T20:16:25;11.17;;;5.97;;
13374;SDS011;6756;51.354;15.754;2024-03-23T20:20:26;9.73;;;5.30;;
13374;SDS011;6756;51.354;15.754;2024-03-23T20:24:27;9.03;;;6.13;;
13374;SDS011;6756;51.354;15.754;2024-03-23T20:28:28;11.93;;;5.90;;
13374;SDS011;6756;51.354;15.754;2024-03-23T20:32:29;11.47;;;5.70;;
13374;SDS011;6756;51.354;15.754;2024-03-23T20:36:29;6.87;;;4.53;;
13374;SDS011;6756;51.354;15.754;2024-03-23T20:40:30;10.17;;;5.23;;
13374;SDS011;6756;51.354;15.754;2024-03-23T20:44:31;9.87;;;5.20;;
13374;SDS011;6756;51.354;15.754;2024-03-23T20:48:32;7.47;;;5.23;;
13374;SDS011;6756;51.354;15.754;2024-03-23T20:52:34;8.50;;;4.67;;
13374;SDS011;6756;51.354;15.754;2024-03-23T20:56:35;9.70;;;5.47;;
13374;SDS011;6756;51.354;15.754;2024-03-23T21:00:36;8.10;;;5.43;;
13374;SDS011;6756;51.354;15.754;2024-03-23T21:04:37;10.80;;;5.77;;
13374;SDS011;6756;51.354;15.754;2024-03-23T21:08:38;8.30;;;5.07;;
13374;SDS011;6756;51.354;15.754;2024-03-23T21:12:38;7.57;;;4.47;;
13374;SDS011;6756;51.354;15.754;2024-03-23T21:16:39;7.67;;;4.27;;
13374;SDS011;6756;51.354;15.754;2024-03-23T21:20:40;8.67;;;5.03;;
13374;SDS011;6756;51.354;15.754;2024-03-23T21:24:41;8.97;;;5.37;;
13374;SDS011;6756;51.354;15.754;2024-03-23T21:28:43;8.13;;;4.43;;
13374;SDS011;6756;51.354;15.754;2024-03-23T21:32:44;6.83;;;4.60;;
13374;SDS011;6756;51.354;15.754;2024-03-23T21:36:50;10.47;;;5.33;;
13374;SDS011;6756;51.354;15.754;2024-03-23T21:40:52;6.97;;;4.63;;
13374;SDS011;6756;51.354;15.754;2024-03-23T21:44:59;6.03;;;4.60;;
13374;SDS011;6756;51.354;15.754;2024-03-23T21:48:59;9.47;;;4.67;;
13374;SDS011;6756;51.354;15.754;2024-03-23T21:53:00;9.90;;;5.67;;
13374;SDS011;6756;51.354;15.754;2024-03-23T21:57:01;7.20;;;4.47;;
13374;SDS011;6756;51.354;15.754;2024-03-23T22:01:05;6.37;;;4.50;;
13374;SDS011;6756;51.354;15.754;2024-03-23T22:05:06;10.17;;;5.43;;
13374;SDS011;6756;51.354;15.754;2024-03-23T22:09:07;9.73;;;5.37;;
13374;SDS011;6756;51.354;15.754;2024-03-23T22:13:08;6.70;;;4.83;;
13374;SDS011;6756;51.354;15.754;2024-03-23T22:17:09;8.73;;;5.03;;
13374;SDS011;6756;51.354;15.754;2024-03-23T22:21:10;7.83;;;5.03;;
13374;SDS011;6756;51.354;15.754;2024-03-23T22:25:10;8.43;;;5.87;;
13374;SDS011;6756;51.354;15.754;2024-03-23T22:29:11;7.13;;;4.73;;
13374;SDS011;6756;51.354;15.754;2024-03-23T22:33:12;6.87;;;4.97;;
13374;SDS011;6756;51.354;15.754;2024-03-23T22:37:13;7.60;;;5.07;;
13374;SDS011;6756;51.354;15.754;2024-03-23T22:41:13;10.00;;;4.90;;
13374;SDS011;6756;51.354;15.754;2024-03-23T22:45:15;8.83;;;5.23;;
13374;SDS011;6756;51.354;15.754;2024-03-23T22:49:16;6.03;;;4.33;;
13374;SDS011;6756;51.354;15.754;2024-03-23T22:53:17;9.53;;;5.33;;
13374;SDS011;6756;51.354;15.754;2024-03-23T22:57:18;7.53;;;4.80;;
13374;SDS011;6756;51.354;15.754;2024-03-23T23:01:18;8.23;;;4.67;;
13374;SDS011;6756;51.354;15.754;2024-03-23T23:05:19;8.73;;;4.80;;
13374;SDS011;6756;51.354;15.754;2024-03-23T23:09:20;13.97;;;5.20;;
13374;SDS011;6756;51.354;15.754;2024-03-23T23:13:21;8.90;;;5.67;;
13374;SDS011;6756;51.354;15.754;2024-03-23T23:17:21;8.23;;;5.13;;
13374;SDS011;6756;51.354;15.754;2024-03-23T23:21:22;8.93;;;5.23;;
13374;SDS011;6756;51.354;15.754;2024-03-23T23:25:23;7.07;;;5.47;;
13374;SDS011;6756;51.354;15.754;2024-03-23T23:29:24;9.27;;;5.50;;
13374;SDS011;6756;51.354;15.754;2024-03-23T23:33:24;7.60;;;5.23;;
13374;SDS011;6756;51.354;15.754;2024-03-23T23:37:25;6.83;;;4.60;;
13374;SDS011;6756;51.354;15.754;2024-03-23T23:41:27;8.87;;;5.20;;
13374;SDS011;6756;51.354;15.754;2024-03-23T23:45:27;8.23;;;5.20;;
13374;SDS011;6756;51.354;15.754;2024-03-23T23:49:28;9.00;;;5.30;;
13374;SDS011;6756;51.354;15.754;2024-03-23T23:53:29;6.77;;;4.43;;
13374;SDS011;6756;51.354;15.754;2024-03-23T23:57:29;7.17;;;4.53;;
